createdAt,value
2023-04-15T00:00:31.355Z,98952.81
2023-04-15T00:02:32.960Z,98950.38
2023-04-15T00:04:34.591Z,98946.56
2023-04-15T00:06:37.476Z,98956.25
2023-04-15T00:08:39.259Z,98945.94
2023-04-15T00:10:40.748Z,98945.75
2023-04-15T00:12:42.414Z,98945.38
2023-04-15T00:14:44.919Z,98953.41
2023-04-15T00:16:46.406Z,98941.13
2023-04-15T00:18:47.799Z,98941.31
2023-04-15T00:20:49.187Z,98936.69
2023-04-15T00:22:50.641Z,98946.78
2023-04-15T00:24:53.297Z,98940.91
2023-04-15T00:26:54.716Z,98942.75
2023-04-15T00:28:56.145Z,98935.50
2023-04-15T00:30:57.743Z,98943.53
2023-04-15T00:32:59.376Z,98937.53
2023-04-15T00:35:00.986Z,98939.72
2023-04-15T00:37:02.673Z,98936.50
2023-04-15T00:39:05.304Z,98935.50
2023-04-15T00:41:07.597Z,98942.16
2023-04-15T00:43:08.986Z,98937.91
2023-04-15T00:45:10.752Z,98933.69
2023-04-15T00:47:12.313Z,98937.91
2023-04-15T00:49:13.994Z,98936.53
2023-04-15T00:51:16.050Z,98940.34
2023-04-15T00:53:17.448Z,98946.19
2023-04-15T00:55:19.322Z,98946.38
2023-04-15T00:57:22.357Z,98948.22
2023-04-15T00:59:24.100Z,98945.97
2023-04-15T01:01:26.450Z,98945.38
2023-04-15T01:03:29.491Z,98945.78
2023-04-15T01:05:31.306Z,98942.78
2023-04-15T01:07:32.706Z,98945.00
2023-04-15T01:09:34.137Z,98941.97
2023-04-15T01:11:35.712Z,98941.34
2023-04-15T01:13:37.272Z,98943.78
2023-04-15T01:15:39.062Z,98940.75
2023-04-15T01:17:40.535Z,98942.75
2023-04-15T01:19:42.264Z,98946.38
2023-04-15T01:21:43.777Z,98945.38
2023-04-15T01:23:47.677Z,98948.41
2023-04-15T01:25:50.248Z,98939.16
2023-04-15T01:27:51.633Z,98941.38
2023-04-15T01:29:53.072Z,98950.38
2023-04-15T01:31:56.014Z,98943.56
2023-04-15T01:33:57.605Z,98941.72
2023-04-15T01:35:59.163Z,98948.19
2023-04-15T01:38:06.520Z,98947.38
2023-04-15T01:40:08.578Z,98941.13
2023-04-15T01:42:10.201Z,98943.94
2023-04-15T01:44:11.655Z,98936.69
2023-04-15T01:46:13.093Z,98944.72
2023-04-15T01:48:14.535Z,98942.53
2023-04-15T01:50:16.085Z,98935.66
2023-04-15T01:52:17.529Z,98939.69
2023-04-15T01:54:18.901Z,98932.84
2023-04-15T01:56:20.298Z,98936.44
2023-04-15T01:58:22.530Z,98933.03
2023-04-15T02:00:24.004Z,98932.63
2023-04-15T02:02:25.902Z,98931.19
2023-04-15T02:04:27.934Z,98941.06
2023-04-15T02:06:29.298Z,98937.81
2023-04-15T02:08:30.864Z,98951.28
2023-04-15T02:10:32.236Z,98951.50
2023-04-15T02:12:33.815Z,98950.88
2023-04-15T02:14:35.614Z,98946.47
2023-04-15T02:16:37.127Z,98953.31
2023-04-15T02:18:38.580Z,98947.28
2023-04-15T02:20:40.026Z,98959.34
2023-04-15T02:22:41.415Z,98956.75
2023-04-15T02:24:42.794Z,98946.28
2023-04-15T02:26:44.148Z,98947.69
2023-04-15T02:28:46.787Z,98959.34
2023-04-15T02:30:52.813Z,98961.97
2023-04-15T02:32:54.737Z,98959.94
2023-04-15T02:34:56.271Z,98960.75
2023-04-15T02:36:57.811Z,98961.56
2023-04-15T02:38:59.835Z,98970.22
2023-04-15T02:41:01.569Z,98969.59
2023-04-15T02:43:03.155Z,98965.38
2023-04-15T02:45:05.925Z,98970.63
2023-04-15T02:47:07.411Z,98968.00
2023-04-15T02:49:08.862Z,98972.03
2023-04-15T02:51:19.883Z,98979.88
2023-04-15T02:53:21.433Z,98972.41
2023-04-15T02:55:22.890Z,98974.22
2023-04-15T02:57:24.364Z,98979.63
2023-04-15T02:59:25.733Z,98986.47
2023-04-15T03:01:27.254Z,98988.28
2023-04-15T03:03:28.817Z,98989.09
2023-04-15T03:05:30.530Z,98989.91
2023-04-15T03:07:32.061Z,98989.28
2023-04-15T03:09:33.539Z,98995.53
2023-04-15T03:11:37.017Z,98988.69
2023-04-15T03:13:39.518Z,98993.28
2023-04-15T03:15:40.934Z,99001.34
2023-04-15T03:17:42.480Z,98997.91
2023-04-15T03:19:44.302Z,99001.94
2023-04-15T03:21:45.741Z,98989.06
2023-04-15T03:23:47.159Z,98997.09
2023-04-15T03:25:48.610Z,98994.69
2023-04-15T03:27:49.988Z,99001.50
2023-04-15T03:29:51.724Z,99000.53
2023-04-15T03:31:53.639Z,99003.53
2023-04-15T03:33:55.034Z,99005.34
2023-04-15T03:35:56.676Z,99007.72
2023-04-15T03:37:58.128Z,98999.66
2023-04-15T03:39:59.521Z,99000.84
2023-04-15T03:42:01.820Z,99011.06
2023-04-15T03:44:03.238Z,99011.66
2023-04-15T03:46:04.943Z,99010.41
2023-04-15T03:48:16.487Z,99009.00
2023-04-15T03:50:19.445Z,99010.63
2023-04-15T03:52:20.874Z,99009.59
2023-04-15T03:54:22.274Z,99005.19
2023-04-15T03:56:23.640Z,99011.44
2023-04-15T03:58:25.059Z,99007.00
2023-04-15T04:00:26.478Z,99014.06
2023-04-15T04:02:28.306Z,99015.03
2023-04-15T04:04:30.070Z,99014.66
2023-04-15T04:06:31.600Z,99012.22
2023-04-15T04:08:33.012Z,99010.81
2023-04-15T04:10:34.684Z,99009.56
2023-04-15T04:12:36.280Z,99011.59
2023-04-15T04:14:37.683Z,99011.75
2023-04-15T04:16:39.203Z,99005.13
2023-04-15T04:18:40.837Z,99008.94
2023-04-15T04:20:42.460Z,99008.31
2023-04-15T04:22:43.913Z,99008.69
2023-04-15T04:24:45.333Z,99012.50
2023-04-15T04:26:46.801Z,99019.91
2023-04-15T04:28:48.329Z,99018.69
2023-04-15T04:30:49.798Z,99019.84
2023-04-15T04:32:51.636Z,99020.44
2023-04-15T04:34:53.169Z,99025.03
2023-04-15T04:36:54.573Z,99027.03
2023-04-15T04:38:56.156Z,99032.44
2023-04-15T04:40:57.646Z,99034.22
2023-04-15T04:42:59.105Z,99035.25
2023-04-15T04:45:00.556Z,99033.63
2023-04-15T04:47:01.950Z,99033.78
2023-04-15T04:49:03.574Z,99042.25
2023-04-15T04:51:05.512Z,99043.06
2023-04-15T04:53:07.144Z,99046.06
2023-04-15T04:55:08.794Z,99048.03
2023-04-15T04:57:10.501Z,99046.41
2023-04-15T04:59:11.883Z,99054.88
2023-04-15T05:01:13.546Z,99056.09
2023-04-15T05:03:15.245Z,99051.63
2023-04-15T05:05:17.265Z,99049.03
2023-04-15T05:07:20.776Z,99063.53
2023-04-15T05:09:22.204Z,99056.31
2023-04-15T05:11:23.613Z,99058.53
2023-04-15T05:13:25.080Z,99062.38
2023-04-15T05:15:26.517Z,99064.63
2023-04-15T05:17:27.968Z,99062.44
2023-04-15T05:19:29.358Z,99070.69
2023-04-15T05:21:31.675Z,99069.53
2023-04-15T05:23:33.506Z,99071.38
2023-04-15T05:25:34.931Z,99078.81
2023-04-15T05:27:36.734Z,99083.66
2023-04-15T05:29:38.098Z,99084.91
2023-04-15T05:31:39.598Z,99080.91
2023-04-15T05:33:41.334Z,99083.56
2023-04-15T05:35:42.769Z,99086.59
2023-04-15T05:37:44.254Z,99093.06
2023-04-15T05:39:45.619Z,99096.75
2023-04-15T05:41:47.083Z,99098.75
2023-04-15T05:43:48.498Z,99097.38
2023-04-15T05:45:50.011Z,99099.59
2023-04-15T05:47:53.959Z,99104.25
2023-04-15T05:49:55.819Z,99109.75
2023-04-15T05:51:57.176Z,99109.16
2023-04-15T05:53:58.601Z,99109.59
2023-04-15T05:56:00.088Z,99110.00
2023-04-15T05:58:01.769Z,99113.66
2023-04-15T06:00:05.283Z,99111.88
2023-04-15T06:02:07.499Z,99118.75
2023-04-15T06:04:09.730Z,99116.16
2023-04-15T06:06:11.226Z,99118.81
2023-04-15T06:08:12.577Z,99122.88
2023-04-15T06:10:13.971Z,99124.53
2023-04-15T06:12:15.783Z,99130.38
2023-04-15T06:14:17.188Z,99130.19
2023-04-15T06:16:18.615Z,99139.69
2023-04-15T06:18:20.222Z,99134.47
2023-04-15T06:20:21.716Z,99149.81
2023-04-15T06:22:23.849Z,99153.25
2023-04-15T06:24:25.234Z,99148.63
2023-04-15T06:26:27.210Z,99147.44
2023-04-15T06:28:28.612Z,99145.84
2023-04-15T06:30:29.976Z,99147.44
2023-04-15T06:32:32.424Z,99151.88
2023-04-15T06:34:33.866Z,99151.09
2023-04-15T06:36:35.315Z,99155.72
2023-04-15T06:38:36.704Z,99153.13
2023-04-15T06:40:38.133Z,99157.56
2023-04-15T06:42:39.568Z,99152.31
2023-04-15T06:44:41.061Z,99150.28
2023-04-15T06:46:42.434Z,99157.97
2023-04-15T06:48:44.368Z,99153.50
2023-04-15T06:50:45.805Z,99157.50
2023-04-15T06:52:47.620Z,99154.47
2023-04-15T06:54:49.003Z,99164.75
2023-04-15T06:56:51.523Z,99163.53
2023-04-15T06:58:52.966Z,99161.09
2023-04-15T07:00:54.571Z,99159.25
2023-04-15T07:02:56.457Z,99165.66
2023-04-15T07:04:57.961Z,99167.63
2023-04-15T07:07:01.638Z,99167.75
2023-04-15T07:09:04.632Z,99160.47
2023-04-15T07:11:07.427Z,99166.66
2023-04-15T07:13:08.899Z,99168.00
2023-04-15T07:15:10.785Z,99175.22
2023-04-15T07:17:12.283Z,99164.03
2023-04-15T07:19:13.678Z,99172.63
2023-04-15T07:21:15.195Z,99164.34
2023-04-15T07:23:16.588Z,99173.56
2023-04-15T07:25:18.945Z,99166.03
2023-04-15T07:27:20.924Z,99172.41
2023-04-15T07:29:22.431Z,99174.78
2023-04-15T07:31:23.875Z,99172.97
2023-04-15T07:33:25.328Z,99163.41
2023-04-15T07:35:27.507Z,99169.94
2023-04-15T07:37:29.600Z,99168.63
2023-04-15T07:39:31.189Z,99175.66
2023-04-15T07:41:32.606Z,99174.63
2023-04-15T07:43:34.048Z,99176.53
2023-04-15T07:45:35.637Z,99181.28
2023-04-15T07:47:37.236Z,99186.41
2023-04-15T07:49:38.741Z,99182.94
2023-04-15T07:51:40.183Z,99179.97
2023-04-15T07:53:42.466Z,99185.03
2023-04-15T07:55:43.851Z,99185.97
2023-04-15T07:57:45.334Z,99189.34
2023-04-15T07:59:46.725Z,99185.16
2023-04-15T08:01:48.358Z,99184.94
2023-04-15T08:03:50.057Z,99185.66
2023-04-15T08:05:51.559Z,99187.75
2023-04-15T08:07:53.028Z,99191.47
2023-04-15T08:09:54.663Z,99195.78
2023-04-15T08:11:56.974Z,99194.94
2023-04-15T08:13:58.435Z,99186.50
2023-04-15T08:16:21.187Z,99192.13
2023-04-15T08:18:22.667Z,99195.38
2023-04-15T08:20:24.089Z,99191.25
2023-04-15T08:22:25.645Z,99196.16
2023-04-15T08:24:27.326Z,99187.81
2023-04-15T08:26:28.870Z,99192.53
2023-04-15T08:28:30.648Z,99193.59
2023-04-15T08:30:32.033Z,99192.44
2023-04-15T08:32:33.470Z,99199.75
2023-04-15T08:34:35.192Z,99194.59
2023-04-15T08:38:51.302Z,99190.59
2023-04-15T08:40:52.798Z,99200.56
2023-04-15T08:42:57.588Z,99205.38
2023-04-15T08:45:01.133Z,99202.28
2023-04-15T08:47:03.562Z,99204.94
2023-04-15T08:49:05.670Z,99204.16
2023-04-15T08:51:08.411Z,99207.47
2023-04-15T08:53:11.632Z,99210.31
2023-04-15T08:55:14.311Z,99209.75
2023-04-15T08:57:16.195Z,99215.41
2023-04-15T08:59:18.155Z,99220.41
2023-04-15T09:01:20.096Z,99219.19
2023-04-15T09:03:23.641Z,99216.09
2023-04-15T09:05:25.228Z,99220.75
2023-04-15T09:07:26.986Z,99225.97
2023-04-15T09:09:29.034Z,99226.88
2023-04-15T09:11:31.399Z,99235.22
2023-04-15T09:13:32.970Z,99229.94
2023-04-15T09:15:38.361Z,99225.63
2023-04-15T09:17:44.218Z,99234.56
2023-04-15T09:19:46.026Z,99236.53
2023-04-15T09:21:48.041Z,99238.94
2023-04-15T09:24:00.551Z,99242.03
2023-04-15T09:26:02.814Z,99246.63
2023-04-15T09:28:04.323Z,99250.53
2023-04-15T09:30:08.868Z,99253.53
2023-04-15T09:32:15.537Z,99250.06
2023-04-15T09:34:17.914Z,99253.88
2023-04-15T09:36:19.356Z,99253.50
2023-04-15T09:38:20.805Z,99255.59
2023-04-15T09:40:36.351Z,99257.28
2023-04-15T09:42:53.706Z,99259.34
2023-04-15T09:44:55.273Z,99262.22
2023-04-15T09:46:56.695Z,99257.66
2023-04-15T09:49:11.651Z,99261.41
2023-04-15T09:51:13.261Z,99256.38
2023-04-15T09:53:19.482Z,99259.94
2023-04-15T09:55:21.089Z,99271.84
2023-04-15T09:57:23.646Z,99266.34
2023-04-15T09:59:25.087Z,99276.22
2023-04-15T10:01:26.996Z,99278.56
2023-04-15T10:03:31.137Z,99281.59
2023-04-15T10:05:33.471Z,99274.75
2023-04-15T10:07:35.227Z,99281.06
2023-04-15T10:09:38.188Z,99278.31
2023-04-15T10:11:39.994Z,99283.94
2023-04-15T10:13:41.632Z,99273.38
2023-04-15T10:15:46.037Z,99283.97
2023-04-15T10:17:50.386Z,99287.44
2023-04-15T10:19:54.552Z,99293.41
2023-04-15T10:21:56.202Z,99295.47
2023-04-15T10:23:58.747Z,99294.16
2023-04-15T10:26:01.092Z,99295.97
2023-04-15T10:28:03.387Z,99295.97
2023-04-15T10:30:06.032Z,99301.28
2023-04-15T10:32:08.047Z,99295.56
2023-04-15T10:34:10.786Z,99297.47
2023-04-15T10:36:13.104Z,99299.13
2023-04-15T10:38:46.806Z,99304.41
2023-04-15T10:40:50.624Z,99301.13
2023-04-15T10:42:52.070Z,99310.19
2023-04-15T10:44:57.048Z,99307.78
2023-04-15T10:46:58.673Z,99311.94
2023-04-15T10:49:08.071Z,99309.22
2023-04-15T10:51:09.489Z,99316.22
2023-04-15T10:53:11.340Z,99315.03
2023-04-15T10:55:20.250Z,99316.44
2023-04-15T10:57:23.662Z,99319.78
2023-04-15T10:59:25.272Z,99320.19
2023-04-15T11:01:55.022Z,99315.34
2023-04-15T11:03:56.951Z,99321.66
2023-04-15T11:05:58.571Z,99317.53
2023-04-15T11:08:00.050Z,99328.72
2023-04-15T11:10:01.909Z,99324.25
2023-04-15T11:12:10.532Z,99328.31
2023-04-15T11:14:16.200Z,99329.50
2023-04-15T11:16:18.070Z,99331.50
2023-04-15T11:18:28.439Z,99327.66
2023-04-15T11:20:29.929Z,99333.63
2023-04-15T11:22:31.403Z,99338.56
2023-04-15T11:24:32.857Z,99334.16
2023-04-15T11:26:34.311Z,99334.59
2023-04-15T11:28:38.765Z,99341.56
2023-04-15T11:30:42.446Z,99339.84
2023-04-15T11:32:44.054Z,99345.66
2023-04-15T11:34:46.601Z,99349.72
2023-04-15T11:36:48.874Z,99350.13
2023-04-15T11:38:50.467Z,99350.50
2023-04-15T11:40:52.668Z,99358.53
2023-04-15T11:43:31.674Z,99361.84
2023-04-15T11:45:33.393Z,99358.16
2023-04-15T11:47:36.925Z,99368.50
2023-04-15T11:49:43.003Z,99365.09
2023-04-15T11:51:45.261Z,99366.03
2023-04-15T11:53:48.617Z,99369.72
2023-04-15T11:55:52.757Z,99364.09
2023-04-15T11:58:21.295Z,99369.78
2023-04-15T12:00:23.134Z,99365.47
2023-04-15T12:02:32.089Z,99374.78
2023-04-15T12:04:33.870Z,99381.09
2023-04-15T12:06:36.831Z,99384.44
2023-04-15T12:09:00.394Z,99382.06
2023-04-15T12:11:01.919Z,99388.41
2023-04-15T12:13:07.046Z,99385.78
2023-04-15T12:15:09.862Z,99382.84
2023-04-15T12:17:13.116Z,99383.41
2023-04-15T12:19:16.301Z,99396.88
2023-04-15T12:21:22.620Z,99390.59
2023-04-15T12:23:24.042Z,99394.19
2023-04-15T12:25:35.318Z,99402.63
2023-04-15T12:27:36.777Z,99398.56
2023-04-15T12:29:39.888Z,99411.47
2023-04-15T12:31:52.069Z,99405.63
2023-04-15T12:34:00.951Z,99408.53
2023-04-15T12:36:03.143Z,99417.13
2023-04-15T12:38:04.569Z,99417.75
2023-04-15T12:40:08.543Z,99418.63
2023-04-15T12:42:10.791Z,99420.25
2023-04-15T12:44:12.720Z,99423.59
2023-04-15T12:46:14.209Z,99433.34
2023-04-15T12:48:15.731Z,99430.59
2023-04-15T12:50:18.816Z,99433.97
2023-04-15T12:52:20.286Z,99438.22
2023-04-15T12:54:21.961Z,99441.16
2023-04-15T12:56:23.904Z,99436.03
2023-04-15T12:58:25.388Z,99438.22
2023-04-15T13:00:26.793Z,99441.00
2023-04-15T13:02:29.194Z,99442.41
2023-04-15T13:04:31.630Z,99442.69
2023-04-15T13:06:33.404Z,99441.66
2023-04-15T13:08:36.780Z,99443.50
2023-04-15T13:10:40.414Z,99450.22
2023-04-15T13:12:41.815Z,99450.84
2023-04-15T13:14:43.317Z,99450.47
2023-04-15T13:16:44.725Z,99450.16
2023-04-15T13:18:46.177Z,99455.75
2023-04-15T13:20:47.577Z,99457.78
2023-04-15T13:22:49.079Z,99462.34
2023-04-15T13:24:51.404Z,99461.63
2023-04-15T13:26:53.433Z,99459.94
2023-04-15T13:28:54.873Z,99460.44
2023-04-15T13:30:56.315Z,99466.81
2023-04-15T13:32:57.922Z,99464.63
2023-04-15T13:34:59.668Z,99469.97
2023-04-15T13:37:09.427Z,99466.16
2023-04-15T13:39:11.042Z,99468.50
2023-04-15T13:41:12.424Z,99473.56
2023-04-15T13:43:13.898Z,99472.03
2023-04-15T13:45:16.170Z,99482.59
2023-04-15T13:47:19.484Z,99478.88
2023-04-15T13:49:21.013Z,99482.22
2023-04-15T13:51:22.751Z,99477.81
2023-04-15T13:53:38.020Z,99476.94
2023-04-15T13:55:42.552Z,99480.50
2023-04-15T13:57:44.221Z,99486.53
2023-04-15T13:59:46.335Z,99488.34
2023-04-15T14:01:47.768Z,99493.44
2023-04-15T14:03:49.280Z,99500.09
2023-04-15T14:05:55.913Z,99496.16
2023-04-15T14:07:57.578Z,99503.44
2023-04-15T14:09:59.045Z,99503.53
2023-04-15T14:12:01.404Z,99497.28
2023-04-15T14:14:02.999Z,99507.41
2023-04-15T14:16:05.207Z,99509.09
2023-04-15T14:18:07.579Z,99518.53
2023-04-15T14:20:09.626Z,99509.72
2023-04-15T14:22:11.193Z,99517.59
2023-04-15T14:24:12.583Z,99524.16
2023-04-15T14:26:14.611Z,99528.25
2023-04-15T14:28:16.157Z,99532.69
2023-04-15T14:30:17.604Z,99526.97
2023-04-15T14:32:19.037Z,99532.81
2023-04-15T14:34:22.235Z,99530.78
2023-04-15T14:36:23.657Z,99528.72
2023-04-15T14:38:25.051Z,99527.34
2023-04-15T14:40:26.548Z,99534.00
2023-04-15T14:42:28.028Z,99538.59
2023-04-15T14:46:30.977Z,99545.88
2023-04-15T14:48:32.561Z,99541.81
2023-04-15T14:50:33.987Z,99547.16
2023-04-15T14:52:38.817Z,99543.72
2023-04-15T14:54:40.225Z,99549.28
2023-04-15T14:56:41.661Z,99553.41
2023-04-15T14:58:43.075Z,99552.50
2023-04-15T15:00:44.747Z,99553.81
2023-04-15T15:02:47.487Z,99552.38
2023-04-15T15:04:49.063Z,99559.69
2023-04-15T15:06:50.874Z,99555.78
2023-04-15T15:08:52.332Z,99561.53
2023-04-15T15:10:53.713Z,99559.00
2023-04-15T15:12:55.180Z,99561.09
2023-04-15T15:14:56.630Z,99549.84
2023-04-15T15:16:58.211Z,99556.38
2023-04-15T15:19:00.016Z,99563.25
2023-04-15T15:21:03.858Z,99570.25
2023-04-15T15:23:05.393Z,99569.94
2023-04-15T15:25:06.892Z,99570.75
2023-04-15T15:27:08.438Z,99573.97
2023-04-15T15:29:09.937Z,99578.84
2023-04-15T15:31:11.813Z,99582.84
2023-04-15T15:33:13.275Z,99584.16
2023-04-15T15:35:14.746Z,99593.66
2023-04-15T15:37:16.151Z,99589.06
2023-04-15T15:39:17.577Z,99602.63
2023-04-15T15:41:19.106Z,99597.25
2023-04-15T15:43:20.655Z,99601.41
2023-04-15T15:45:22.306Z,99609.78
2023-04-15T15:47:23.828Z,99602.69
2023-04-15T15:49:25.864Z,99611.78
2023-04-15T15:51:27.661Z,99619.09
2023-04-15T15:53:29.081Z,99618.72
2023-04-15T15:55:30.637Z,99616.75
2023-04-15T15:57:32.223Z,99612.28
2023-04-15T15:59:33.823Z,99625.03
2023-04-15T16:01:35.756Z,99619.19
2023-04-15T16:03:37.572Z,99624.41
2023-04-15T16:05:39.308Z,99642.88
2023-04-15T16:07:40.806Z,99637.63
2023-04-15T16:09:42.594Z,99626.88
2023-04-15T16:11:45.312Z,99634.84
2023-04-15T16:13:46.743Z,99638.84
2023-04-15T16:15:50.038Z,99637.81
2023-04-15T16:17:52.231Z,99646.94
2023-04-15T16:20:00.283Z,99645.91
2023-04-15T16:22:02.843Z,99639.66
2023-04-15T16:24:04.294Z,99641.66
2023-04-15T16:26:06.521Z,99649.38
2023-04-15T16:28:18.557Z,99659.09
2023-04-15T16:30:27.040Z,99646.94
2023-04-15T16:32:28.535Z,99655.44
2023-04-15T16:34:30.159Z,99661.78
2023-04-15T16:36:32.648Z,99660.72
2023-04-15T16:38:34.060Z,99662.97
2023-04-15T16:40:37.270Z,99667.44
2023-04-15T16:42:38.741Z,99670.63
2023-04-15T16:44:40.333Z,99672.53
2023-04-15T16:46:41.880Z,99665.81
2023-04-15T16:48:43.311Z,99665.22
2023-04-15T16:50:44.928Z,99681.25
2023-04-15T16:52:46.471Z,99687.31
2023-04-15T16:54:48.194Z,99690.13
2023-04-15T16:56:49.666Z,99688.50
2023-04-15T16:58:51.114Z,99685.09
2023-04-15T17:00:53.069Z,99694.59
2023-04-15T17:02:57.987Z,99694.56
2023-04-15T17:05:00.136Z,99693.56
2023-04-15T17:07:01.533Z,99700.69
2023-04-15T17:09:03.541Z,99711.03
2023-04-15T17:11:05.453Z,99715.69
2023-04-15T17:13:07.246Z,99715.88
2023-04-15T17:15:09.195Z,99704.97
2023-04-15T17:17:10.645Z,99711.44
2023-04-15T17:19:12.643Z,99717.28
2023-04-15T17:21:16.062Z,99713.25
2023-04-15T17:23:17.664Z,99725.81
2023-04-15T17:25:19.421Z,99724.41
2023-04-15T17:27:21.495Z,99731.28
2023-04-15T17:29:23.329Z,99732.72
2023-04-15T17:31:25.024Z,99728.69
2023-04-15T17:33:59.914Z,99733.34
2023-04-15T17:35:48.522Z,99729.50
2023-04-15T17:37:50.010Z,99727.69
2023-04-15T17:39:52.173Z,99736.97
2023-04-15T17:41:53.618Z,99737.97
2023-04-15T17:43:55.064Z,99733.94
2023-04-15T17:45:58.503Z,99734.75
2023-04-15T17:48:03.420Z,99748.72
2023-04-15T17:50:05.221Z,99748.72
2023-04-15T17:52:06.829Z,99750.13
2023-04-15T17:54:08.285Z,99753.97
2023-04-15T17:56:09.723Z,99749.53
2023-04-15T17:58:11.126Z,99756.81
2023-04-15T18:00:13.405Z,99757.81
2023-04-15T18:02:15.188Z,99766.56
2023-04-15T18:04:16.890Z,99764.31
2023-04-15T18:06:21.254Z,99770.19
2023-04-15T18:08:22.774Z,99776.88
2023-04-15T18:10:24.320Z,99771.22
2023-04-15T18:12:25.899Z,99773.25
2023-04-15T18:14:34.315Z,99775.25
2023-04-15T18:16:36.665Z,99771.81
2023-04-15T18:18:38.149Z,99781.94
2023-04-15T18:20:39.577Z,99780.34
2023-04-15T18:22:42.443Z,99781.31
2023-04-15T18:24:43.943Z,99787.81
2023-04-15T18:26:48.793Z,99783.56
2023-04-15T18:28:50.770Z,99785.59
2023-04-15T18:30:52.235Z,99796.91
2023-04-15T18:32:53.778Z,99798.13
2023-04-15T18:34:56.386Z,99804.41
2023-04-15T18:36:58.639Z,99806.22
2023-04-15T18:39:00.180Z,99808.47
2023-04-15T18:41:01.671Z,99811.50
2023-04-15T18:43:03.069Z,99818.78
2023-04-15T18:45:04.851Z,99810.28
2023-04-15T18:47:06.555Z,99812.91
2023-04-15T18:49:08.165Z,99825.88
2023-04-15T18:51:10.627Z,99826.09
2023-04-15T18:53:12.106Z,99826.28
2023-04-15T18:55:13.652Z,99824.47
2023-04-15T18:57:20.452Z,99822.63
2023-04-15T18:59:29.752Z,99831.94
2023-04-15T19:01:32.406Z,99827.28
2023-04-15T19:03:34.209Z,99832.13
2023-04-15T19:05:36.557Z,99833.34
2023-04-15T19:07:38.071Z,99831.31
2023-04-15T19:09:41.323Z,99843.66
2023-04-15T19:11:44.211Z,99853.00
2023-04-15T19:13:46.852Z,99853.81
2023-04-15T19:15:48.722Z,99852.59
2023-04-15T19:17:50.210Z,99858.50
2023-04-15T19:19:51.762Z,99850.59
2023-04-15T19:21:53.662Z,99860.50
2023-04-15T19:23:56.676Z,99860.91
2023-04-15T19:25:58.674Z,99861.50
2023-04-15T19:28:00.278Z,99867.38
2023-04-15T19:30:03.268Z,99873.66
2023-04-15T19:32:05.699Z,99864.75
2023-04-15T19:34:07.436Z,99861.06
2023-04-15T19:36:08.917Z,99863.94
2023-04-15T19:38:10.409Z,99871.59
2023-04-15T19:40:11.995Z,99872.25
2023-04-15T19:42:13.607Z,99868.97
2023-04-15T19:44:15.119Z,99884.56
2023-04-15T19:46:16.640Z,99871.59
2023-04-15T19:48:18.824Z,99871.59
2023-04-15T19:50:24.570Z,99874.97
2023-04-15T19:52:26.104Z,99876.44
2023-04-15T19:54:27.540Z,99862.88
2023-04-15T19:56:29.417Z,99867.97
2023-04-15T19:58:32.407Z,99876.44
2023-04-15T20:00:33.889Z,99884.97
2023-04-15T20:02:35.469Z,99877.09
2023-04-15T20:04:36.990Z,99886.97
2023-04-15T20:06:38.467Z,99882.94
2023-04-15T20:08:40.047Z,99886.16
2023-04-15T20:10:41.466Z,99889.44
2023-04-15T20:12:49.679Z,99884.34
2023-04-15T20:14:54.086Z,99892.06
2023-04-15T20:16:55.501Z,99891.06
2023-04-15T20:18:56.954Z,99887.97
2023-04-15T20:20:58.355Z,99897.50
2023-04-15T20:22:59.753Z,99895.28
2023-04-15T20:25:02.237Z,99900.75
2023-04-15T20:27:03.909Z,99901.56
2023-04-15T20:29:05.764Z,99905.00
2023-04-15T20:31:07.582Z,99908.84
2023-04-15T20:33:09.193Z,99911.88
2023-04-15T20:35:10.802Z,99907.19
2023-04-15T20:37:12.402Z,99910.47
2023-04-15T20:39:13.820Z,99917.56
2023-04-15T20:41:15.738Z,99911.66
2023-04-15T20:43:17.642Z,99909.66
2023-04-15T20:45:19.567Z,99914.28
2023-04-15T20:47:21.384Z,99911.28
2023-04-15T20:49:23.159Z,99913.69
2023-04-15T20:51:25.003Z,99906.03
2023-04-15T20:53:45.491Z,99911.09
2023-04-15T20:55:46.969Z,99913.53
2023-04-15T20:57:48.646Z,99916.97
2023-04-15T20:59:50.370Z,99915.75
2023-04-15T21:01:51.954Z,99917.56
2023-04-15T21:03:53.429Z,99922.44
2023-04-15T21:05:54.865Z,99925.28
2023-04-15T21:07:56.282Z,99928.75
2023-04-15T21:09:57.742Z,99931.53
2023-04-15T21:12:01.671Z,99935.56
2023-04-15T21:14:07.184Z,99933.94
2023-04-15T21:16:08.702Z,99933.75
2023-04-15T21:18:10.302Z,99930.09
2023-04-15T21:20:12.100Z,99929.31
2023-04-15T21:22:13.561Z,99936.19
2023-04-15T21:24:14.993Z,99936.00
2023-04-15T21:26:16.384Z,99937.22
2023-04-15T21:28:17.905Z,99938.84
2023-04-15T21:30:19.500Z,99948.16
2023-04-15T21:32:20.912Z,99957.28
2023-04-15T21:34:22.483Z,99958.09
2023-04-15T21:36:23.982Z,99958.44
2023-04-15T21:38:25.746Z,99957.44
2023-04-15T21:40:27.184Z,99952.59
2023-04-15T21:42:29.921Z,99955.22
2023-04-15T21:44:31.378Z,99960.72
2023-04-15T21:46:35.776Z,99962.31
2023-04-15T21:48:37.531Z,99966.59
2023-04-15T21:50:39.084Z,99967.41
2023-04-15T21:52:40.561Z,99976.66
2023-04-15T21:54:41.942Z,99972.19
2023-04-15T21:56:43.583Z,99977.91
2023-04-15T21:58:44.992Z,99972.41
2023-04-15T22:00:46.892Z,99975.44
2023-04-15T22:02:48.445Z,99983.34
2023-04-15T22:04:50.053Z,99979.72
2023-04-15T22:06:52.265Z,99984.38
2023-04-15T22:08:57.596Z,99976.88
2023-04-15T22:10:59.353Z,99979.06
2023-04-15T22:13:02.946Z,99979.91
2023-04-15T22:15:04.829Z,99982.34
2023-04-15T22:17:06.605Z,99979.50
2023-04-15T22:19:08.270Z,99982.72
2023-04-15T22:21:10.298Z,99991.84
2023-04-15T22:23:11.656Z,99986.16
2023-04-15T22:25:14.377Z,99981.31
2023-04-15T22:27:15.933Z,99988.03
2023-04-15T22:29:17.333Z,99990.84
2023-04-15T22:31:18.811Z,99993.66
2023-04-15T22:33:20.625Z,99991.41
2023-04-15T22:35:22.037Z,100003.56
2023-04-15T22:37:24.049Z,100000.53
2023-04-15T22:39:25.475Z,99998.69
2023-04-15T22:41:27.234Z,99999.28
2023-04-15T22:43:28.699Z,100006.38
2023-04-15T22:45:30.222Z,99999.69
2023-04-15T22:47:31.683Z,99998.91
2023-04-15T22:49:34.996Z,99994.88
2023-04-15T22:51:37.065Z,100010.22
2023-04-15T22:53:38.615Z,100011.22
2023-04-15T22:55:40.262Z,100007.59
2023-04-15T22:57:41.659Z,100016.13
2023-04-15T22:59:43.051Z,100012.25
2023-04-15T23:01:44.482Z,100019.31
2023-04-15T23:03:55.812Z,100013.81
2023-04-15T23:05:58.640Z,100020.16
2023-04-15T23:08:00.286Z,100030.03
2023-04-15T23:10:01.755Z,100023.75
2023-04-15T23:12:03.859Z,100034.88
2023-04-15T23:14:05.308Z,100026.59
2023-04-15T23:16:07.319Z,100025.84
2023-04-15T23:18:08.798Z,100024.41
2023-04-15T23:20:11.266Z,100031.53
2023-04-15T23:22:12.721Z,100026.88
2023-04-15T23:24:14.087Z,100027.25
2023-04-15T23:26:15.484Z,100024.81
2023-04-15T23:28:16.930Z,100030.91
2023-04-15T23:30:18.589Z,100035.16
2023-04-15T23:32:20.683Z,100036.78
2023-04-15T23:34:22.074Z,100037.78
2023-04-15T23:36:23.477Z,100038.22
2023-04-15T23:38:24.877Z,100037.22
2023-04-15T23:40:26.290Z,100040.66
2023-04-15T23:42:27.670Z,100041.66
2023-04-15T23:44:29.170Z,100035.75
2023-04-15T23:46:30.940Z,100037.22
2023-04-15T23:48:32.614Z,100043.22
2023-04-15T23:50:34.504Z,100034.56
2023-04-15T23:52:36.438Z,100034.88
2023-04-15T23:54:37.860Z,100037.38
2023-04-15T23:56:39.268Z,100046.47
2023-04-15T23:58:40.717Z,100041.00
